sensor_id;sensor_type;location;lat;lon;timestamp;P1;durP1;ratioP1;P2;durP2;ratioP2
34775;SDS011;20989;52.566;13.346;2023-04-16T00:01:05;1.80;;;1.70;;
34775;SDS011;20989;52.566;13.346;2023-04-16T00:04:05;2.05;;;1.95;;
34775;SDS011;20989;52.566;13.346;2023-04-16T00:07:06;1.70;;;1.60;;
34775;SDS011;20989;52.566;13.346;2023-04-16T00:10:07;1.73;;;1.63;;
34775;SDS011;20989;52.566;13.346;2023-04-16T00:13:08;1.90;;;1.80;;
34775;SDS011;20989;52.566;13.346;2023-04-16T00:16:08;1.75;;;1.65;;
34775;SDS011;20989;52.566;13.346;2023-04-16T00:19:09;1.90;;;1.80;;
34775;SDS011;20989;52.566;13.346;2023-04-16T00:22:09;2.42;;;2.22;;
34775;SDS011;20989;52.566;13.346;2023-04-16T00:25:10;1.98;;;1.88;;
34775;SDS011;20989;52.566;13.346;2023-04-16T00:28:10;2.00;;;1.90;;
34775;SDS011;20989;52.566;13.346;2023-04-16T00:31:11;1.90;;;1.80;;
34775;SDS011;20989;52.566;13.346;2023-04-16T00:34:12;2.00;;;1.90;;
34775;SDS011;20989;52.566;13.346;2023-04-16T00:37:12;2.05;;;1.95;;
34775;SDS011;20989;52.566;13.346;2023-04-16T00:40:13;1.70;;;1.60;;
34775;SDS011;20989;52.566;13.346;2023-04-16T00:43:23;1.80;;;1.70;;
34775;SDS011;20989;52.566;13.346;2023-04-16T00:46:25;2.00;;;1.90;;
34775;SDS011;20989;52.566;13.346;2023-04-16T00:49:26;2.20;;;2.10;;
34775;SDS011;20989;52.566;13.346;2023-04-16T00:52:27;2.33;;;2.17;;
34775;SDS011;20989;52.566;13.346;2023-04-16T00:55:28;1.90;;;1.80;;
34775;SDS011;20989;52.566;13.346;2023-04-16T00:58:29;2.03;;;1.92;;
34775;SDS011;20989;52.566;13.346;2023-04-16T01:01:30;2.03;;;1.92;;
34775;SDS011;20989;52.566;13.346;2023-04-16T01:04:31;1.80;;;1.70;;
34775;SDS011;20989;52.566;13.346;2023-04-16T01:07:32;2.13;;;2.03;;
34775;SDS011;20989;52.566;13.346;2023-04-16T01:10:33;2.20;;;2.10;;
34775;SDS011;20989;52.566;13.346;2023-04-16T01:13:34;2.22;;;2.13;;
34775;SDS011;20989;52.566;13.346;2023-04-16T01:16:38;1.92;;;1.65;;
34775;SDS011;20989;52.566;13.346;2023-04-16T01:19:38;2.20;;;2.10;;
34775;SDS011;20989;52.566;13.346;2023-04-16T01:22:39;2.05;;;1.95;;
34775;SDS011;20989;52.566;13.346;2023-04-16T01:25:39;1.80;;;1.70;;
34775;SDS011;20989;52.566;13.346;2023-04-16T01:28:40;1.35;;;1.35;;
34775;SDS011;20989;52.566;13.346;2023-04-16T01:31:41;2.03;;;1.92;;
34775;SDS011;20989;52.566;13.346;2023-04-16T01:34:42;2.05;;;1.95;;
34775;SDS011;20989;52.566;13.346;2023-04-16T01:37:42;2.00;;;1.90;;
34775;SDS011;20989;52.566;13.346;2023-04-16T01:40:43;1.77;;;1.67;;
34775;SDS011;20989;52.566;13.346;2023-04-16T01:43:44;2.15;;;2.05;;
34775;SDS011;20989;52.566;13.346;2023-04-16T01:46:44;1.80;;;1.70;;
34775;SDS011;20989;52.566;13.346;2023-04-16T01:49:45;1.70;;;1.60;;
34775;SDS011;20989;52.566;13.346;2023-04-16T01:52:47;2.03;;;1.92;;
34775;SDS011;20989;52.566;13.346;2023-04-16T01:55:47;2.17;;;2.08;;
34775;SDS011;20989;52.566;13.346;2023-04-16T01:58:48;1.95;;;1.85;;
34775;SDS011;20989;52.566;13.346;2023-04-16T02:01:49;2.00;;;1.90;;
34775;SDS011;20989;52.566;13.346;2023-04-16T02:04:49;2.25;;;2.15;;
34775;SDS011;20989;52.566;13.346;2023-04-16T02:07:50;2.20;;;2.10;;
34775;SDS011;20989;52.566;13.346;2023-04-16T02:10:52;1.90;;;1.80;;
34775;SDS011;20989;52.566;13.346;2023-04-16T02:13:53;1.50;;;1.50;;
34775;SDS011;20989;52.566;13.346;2023-04-16T02:16:55;2.15;;;2.05;;
34775;SDS011;20989;52.566;13.346;2023-04-16T02:19:56;1.83;;;1.73;;
34775;SDS011;20989;52.566;13.346;2023-04-16T02:22:57;2.05;;;1.95;;
34775;SDS011;20989;52.566;13.346;2023-04-16T02:25:58;1.98;;;1.88;;
34775;SDS011;20989;52.566;13.346;2023-04-16T02:29:00;1.80;;;1.70;;
34775;SDS011;20989;52.566;13.346;2023-04-16T02:32:00;1.85;;;1.75;;
34775;SDS011;20989;52.566;13.346;2023-04-16T02:35:01;1.75;;;1.65;;
34775;SDS011;20989;52.566;13.346;2023-04-16T02:38:03;2.08;;;1.95;;
34775;SDS011;20989;52.566;13.346;2023-04-16T02:41:04;2.20;;;2.00;;
34775;SDS011;20989;52.566;13.346;2023-04-16T02:44:05;2.20;;;2.00;;
34775;SDS011;20989;52.566;13.346;2023-04-16T02:47:05;1.73;;;1.63;;
34775;SDS011;20989;52.566;13.346;2023-04-16T02:50:06;1.80;;;1.70;;
34775;SDS011;20989;52.566;13.346;2023-04-16T02:53:07;2.20;;;2.10;;
34775;SDS011;20989;52.566;13.346;2023-04-16T02:56:09;1.83;;;1.73;;
34775;SDS011;20989;52.566;13.346;2023-04-16T02:59:10;2.63;;;2.42;;
34775;SDS011;20989;52.566;13.346;2023-04-16T03:02:11;2.25;;;2.15;;
34775;SDS011;20989;52.566;13.346;2023-04-16T03:05:12;1.88;;;1.77;;
34775;SDS011;20989;52.566;13.346;2023-04-16T03:08:13;2.58;;;2.17;;
34775;SDS011;20989;52.566;13.346;2023-04-16T03:11:14;1.85;;;1.75;;
34775;SDS011;20989;52.566;13.346;2023-04-16T03:14:14;2.72;;;1.92;;
34775;SDS011;20989;52.566;13.346;2023-04-16T03:17:15;2.10;;;2.00;;
34775;SDS011;20989;52.566;13.346;2023-04-16T03:20:15;2.58;;;2.38;;
34775;SDS011;20989;52.566;13.346;2023-04-16T03:23:16;2.58;;;2.38;;
34775;SDS011;20989;52.566;13.346;2023-04-16T03:26:17;2.38;;;2.28;;
34775;SDS011;20989;52.566;13.346;2023-04-16T03:29:17;2.13;;;2.03;;
34775;SDS011;20989;52.566;13.346;2023-04-16T03:32:18;3.00;;;1.80;;
34775;SDS011;20989;52.566;13.346;2023-04-16T03:35:18;2.58;;;2.38;;
34775;SDS011;20989;52.566;13.346;2023-04-16T03:38:19;2.53;;;2.33;;
34775;SDS011;20989;52.566;13.346;2023-04-16T03:41:20;2.38;;;1.83;;
34775;SDS011;20989;52.566;13.346;2023-04-16T03:44:20;2.25;;;2.15;;
34775;SDS011;20989;52.566;13.346;2023-04-16T03:47:21;2.10;;;2.00;;
34775;SDS011;20989;52.566;13.346;2023-04-16T03:50:21;2.10;;;2.00;;
34775;SDS011;20989;52.566;13.346;2023-04-16T03:53:22;2.20;;;2.10;;
34775;SDS011;20989;52.566;13.346;2023-04-16T03:56:23;2.90;;;2.17;;
34775;SDS011;20989;52.566;13.346;2023-04-16T03:59:23;2.53;;;2.33;;
34775;SDS011;20989;52.566;13.346;2023-04-16T04:02:24;2.00;;;1.90;;
34775;SDS011;20989;52.566;13.346;2023-04-16T04:05:24;2.10;;;1.98;;
34775;SDS011;20989;52.566;13.346;2023-04-16T04:08:25;2.45;;;2.35;;
34775;SDS011;20989;52.566;13.346;2023-04-16T04:11:25;2.10;;;2.00;;
34775;SDS011;20989;52.566;13.346;2023-04-16T04:14:26;2.47;;;2.28;;
34775;SDS011;20989;52.566;13.346;2023-04-16T04:17:27;2.22;;;2.13;;
34775;SDS011;20989;52.566;13.346;2023-04-16T04:20:27;2.20;;;2.10;;
34775;SDS011;20989;52.566;13.346;2023-04-16T04:23:28;2.05;;;1.95;;
34775;SDS011;20989;52.566;13.346;2023-04-16T04:26:29;2.13;;;2.03;;
34775;SDS011;20989;52.566;13.346;2023-04-16T04:29:29;2.22;;;2.13;;
34775;SDS011;20989;52.566;13.346;2023-04-16T04:32:30;2.17;;;2.08;;
34775;SDS011;20989;52.566;13.346;2023-04-16T04:35:30;2.40;;;2.20;;
34775;SDS011;20989;52.566;13.346;2023-04-16T04:38:31;2.30;;;2.20;;
34775;SDS011;20989;52.566;13.346;2023-04-16T04:41:32;2.53;;;2.00;;
34775;SDS011;20989;52.566;13.346;2023-04-16T04:44:33;2.10;;;2.00;;
34775;SDS011;20989;52.566;13.346;2023-04-16T04:47:33;1.80;;;1.70;;
34775;SDS011;20989;52.566;13.346;2023-04-16T04:50:34;2.20;;;2.00;;
34775;SDS011;20989;52.566;13.346;2023-04-16T04:53:35;2.10;;;2.00;;
34775;SDS011;20989;52.566;13.346;2023-04-16T04:56:36;2.38;;;2.28;;
34775;SDS011;20989;52.566;13.346;2023-04-16T05:03:33;2.30;;;2.20;;
34775;SDS011;20989;52.566;13.346;2023-04-16T05:06:34;2.20;;;2.10;;
34775;SDS011;20989;52.566;13.346;2023-04-16T05:09:35;2.17;;;2.08;;
34775;SDS011;20989;52.566;13.346;2023-04-16T05:12:36;2.58;;;2.38;;
34775;SDS011;20989;52.566;13.346;2023-04-16T05:15:36;1.95;;;1.85;;
34775;SDS011;20989;52.566;13.346;2023-04-16T05:18:37;1.90;;;1.80;;
34775;SDS011;20989;52.566;13.346;2023-04-16T05:21:38;2.13;;;2.03;;
34775;SDS011;20989;52.566;13.346;2023-04-16T05:24:38;1.98;;;1.88;;
34775;SDS011;20989;52.566;13.346;2023-04-16T05:27:39;1.95;;;1.85;;
34775;SDS011;20989;52.566;13.346;2023-04-16T05:30:39;1.90;;;1.80;;
34775;SDS011;20989;52.566;13.346;2023-04-16T05:33:41;2.20;;;2.10;;
34775;SDS011;20989;52.566;13.346;2023-04-16T05:36:42;2.25;;;2.05;;
34775;SDS011;20989;52.566;13.346;2023-04-16T05:39:42;2.22;;;2.03;;
34775;SDS011;20989;52.566;13.346;2023-04-16T05:42:43;1.98;;;1.88;;
34775;SDS011;20989;52.566;13.346;2023-04-16T05:45:44;2.08;;;1.98;;
34775;SDS011;20989;52.566;13.346;2023-04-16T05:48:45;2.53;;;2.38;;
34775;SDS011;20989;52.566;13.346;2023-04-16T05:51:45;2.30;;;2.20;;
34775;SDS011;20989;52.566;13.346;2023-04-16T05:54:47;2.30;;;2.20;;
34775;SDS011;20989;52.566;13.346;2023-04-16T05:57:47;2.00;;;1.90;;
34775;SDS011;20989;52.566;13.346;2023-04-16T06:00:48;2.13;;;2.03;;
34775;SDS011;20989;52.566;13.346;2023-04-16T06:03:48;2.28;;;2.10;;
34775;SDS011;20989;52.566;13.346;2023-04-16T06:06:49;2.15;;;2.05;;
34775;SDS011;20989;52.566;13.346;2023-04-16T06:09:50;2.20;;;2.00;;
34775;SDS011;20989;52.566;13.346;2023-04-16T06:12:50;2.33;;;2.22;;
34775;SDS011;20989;52.566;13.346;2023-04-16T06:15:51;2.22;;;2.13;;
34775;SDS011;20989;52.566;13.346;2023-04-16T06:18:51;2.83;;;2.63;;
34775;SDS011;20989;52.566;13.346;2023-04-16T06:21:52;6.82;;;2.28;;
34775;SDS011;20989;52.566;13.346;2023-04-16T06:24:53;5.18;;;2.00;;
34775;SDS011;20989;52.566;13.346;2023-04-16T06:27:53;2.00;;;1.90;;
34775;SDS011;20989;52.566;13.346;2023-04-16T06:30:54;2.03;;;1.88;;
34775;SDS011;20989;52.566;13.346;2023-04-16T06:33:55;2.47;;;2.08;;
34775;SDS011;20989;52.566;13.346;2023-04-16T06:36:55;3.10;;;2.42;;
34775;SDS011;20989;52.566;13.346;2023-04-16T06:39:56;2.28;;;2.03;;
34775;SDS011;20989;52.566;13.346;2023-04-16T06:42:57;2.55;;;2.40;;
34775;SDS011;20989;52.566;13.346;2023-04-16T06:45:58;4.07;;;2.50;;
34775;SDS011;20989;52.566;13.346;2023-04-16T06:48:59;3.50;;;2.78;;
34775;SDS011;20989;52.566;13.346;2023-04-16T06:51:59;3.22;;;2.47;;
34775;SDS011;20989;52.566;13.346;2023-04-16T06:55:00;2.35;;;2.15;;
34775;SDS011;20989;52.566;13.346;2023-04-16T06:58:01;2.67;;;2.47;;
34775;SDS011;20989;52.566;13.346;2023-04-16T07:01:02;3.08;;;2.70;;
34775;SDS011;20989;52.566;13.346;2023-04-16T07:04:04;3.20;;;2.22;;
34775;SDS011;20989;52.566;13.346;2023-04-16T07:07:04;5.60;;;2.78;;
34775;SDS011;20989;52.566;13.346;2023-04-16T07:10:05;3.53;;;2.75;;
34775;SDS011;20989;52.566;13.346;2023-04-16T07:13:07;3.05;;;2.33;;
34775;SDS011;20989;52.566;13.346;2023-04-16T07:16:07;2.78;;;2.20;;
34775;SDS011;20989;52.566;13.346;2023-04-16T07:19:08;2.75;;;2.42;;
34775;SDS011;20989;52.566;13.346;2023-04-16T07:22:09;3.53;;;2.80;;
34775;SDS011;20989;52.566;13.346;2023-04-16T07:25:10;2.97;;;2.25;;
34775;SDS011;20989;52.566;13.346;2023-04-16T07:28:10;2.25;;;2.13;;
34775;SDS011;20989;52.566;13.346;2023-04-16T07:31:11;2.30;;;2.10;;
34775;SDS011;20989;52.566;13.346;2023-04-16T07:34:12;5.88;;;2.50;;
34775;SDS011;20989;52.566;13.346;2023-04-16T07:37:13;1.80;;;1.70;;
34775;SDS011;20989;52.566;13.346;2023-04-16T07:40:13;3.60;;;2.60;;
34775;SDS011;20989;52.566;13.346;2023-04-16T07:43:14;2.55;;;2.35;;
34775;SDS011;20989;52.566;13.346;2023-04-16T07:46:15;2.60;;;2.10;;
34775;SDS011;20989;52.566;13.346;2023-04-16T07:49:15;2.80;;;2.58;;
34775;SDS011;20989;52.566;13.346;2023-04-16T07:52:16;2.03;;;1.92;;
34775;SDS011;20989;52.566;13.346;2023-04-16T07:55:17;2.60;;;2.40;;
34775;SDS011;20989;52.566;13.346;2023-04-16T07:58:17;2.28;;;2.15;;
34775;SDS011;20989;52.566;13.346;2023-04-16T08:01:18;3.90;;;2.33;;
34775;SDS011;20989;52.566;13.346;2023-04-16T08:04:19;3.58;;;1.67;;
34775;SDS011;20989;52.566;13.346;2023-04-16T08:07:23;2.85;;;2.25;;
34775;SDS011;20989;52.566;13.346;2023-04-16T08:10:24;2.58;;;1.85;;
34775;SDS011;20989;52.566;13.346;2023-04-16T08:13:25;4.85;;;2.88;;
34775;SDS011;20989;52.566;13.346;2023-04-16T08:16:25;2.17;;;2.05;;
34775;SDS011;20989;52.566;13.346;2023-04-16T08:19:26;2.30;;;2.20;;
34775;SDS011;20989;52.566;13.346;2023-04-16T08:22:26;2.17;;;2.08;;
34775;SDS011;20989;52.566;13.346;2023-04-16T08:25:27;2.33;;;2.22;;
34775;SDS011;20989;52.566;13.346;2023-04-16T08:28:28;2.10;;;2.00;;
34775;SDS011;20989;52.566;13.346;2023-04-16T08:31:28;2.20;;;2.10;;
34775;SDS011;20989;52.566;13.346;2023-04-16T08:34:29;2.10;;;1.90;;
34775;SDS011;20989;52.566;13.346;2023-04-16T08:37:29;2.17;;;2.08;;
34775;SDS011;20989;52.566;13.346;2023-04-16T08:40:30;2.45;;;2.25;;
34775;SDS011;20989;52.566;13.346;2023-04-16T08:43:34;2.47;;;2.28;;
34775;SDS011;20989;52.566;13.346;2023-04-16T08:46:37;1.95;;;1.83;;
34775;SDS011;20989;52.566;13.346;2023-04-16T08:49:42;1.90;;;1.80;;
34775;SDS011;20989;52.566;13.346;2023-04-16T08:52:46;2.22;;;1.80;;
34775;SDS011;20989;52.566;13.346;2023-04-16T08:55:55;2.05;;;1.95;;
34775;SDS011;20989;52.566;13.346;2023-04-16T08:58:59;1.95;;;1.85;;
34775;SDS011;20989;52.566;13.346;2023-04-16T09:02:04;2.47;;;2.28;;
34775;SDS011;20989;52.566;13.346;2023-04-16T09:05:05;2.30;;;1.75;;
34775;SDS011;20989;52.566;13.346;2023-04-16T09:08:08;1.83;;;1.73;;
34775;SDS011;20989;52.566;13.346;2023-04-16T09:11:09;1.95;;;1.85;;
34775;SDS011;20989;52.566;13.346;2023-04-16T09:14:11;2.17;;;2.08;;
34775;SDS011;20989;52.566;13.346;2023-04-16T09:17:11;2.22;;;2.13;;
34775;SDS011;20989;52.566;13.346;2023-04-16T09:20:13;1.90;;;1.80;;
34775;SDS011;20989;52.566;13.346;2023-04-16T09:23:14;2.50;;;2.30;;
34775;SDS011;20989;52.566;13.346;2023-04-16T09:26:15;2.33;;;2.20;;
34775;SDS011;20989;52.566;13.346;2023-04-16T09:29:32;2.08;;;1.98;;
34775;SDS011;20989;52.566;13.346;2023-04-16T09:32:34;2.25;;;2.00;;
34775;SDS011;20989;52.566;13.346;2023-04-16T09:35:43;1.95;;;1.85;;
34775;SDS011;20989;52.566;13.346;2023-04-16T09:38:50;2.42;;;2.22;;
34775;SDS011;20989;52.566;13.346;2023-04-16T09:41:52;2.28;;;2.08;;
34775;SDS011;20989;52.566;13.346;2023-04-16T09:44:54;2.20;;;2.10;;
34775;SDS011;20989;52.566;13.346;2023-04-16T09:48:02;1.70;;;1.60;;
34775;SDS011;20989;52.566;13.346;2023-04-16T09:51:05;1.75;;;1.65;;
34775;SDS011;20989;52.566;13.346;2023-04-16T09:54:06;1.83;;;1.73;;
34775;SDS011;20989;52.566;13.346;2023-04-16T09:57:07;2.05;;;1.95;;
34775;SDS011;20989;52.566;13.346;2023-04-16T10:00:08;2.20;;;2.10;;
34775;SDS011;20989;52.566;13.346;2023-04-16T10:03:09;1.83;;;1.73;;
34775;SDS011;20989;52.566;13.346;2023-04-16T10:06:14;2.25;;;1.85;;
34775;SDS011;20989;52.566;13.346;2023-04-16T10:09:17;2.40;;;2.30;;
34775;SDS011;20989;52.566;13.346;2023-04-16T10:12:17;1.92;;;1.83;;
34775;SDS011;20989;52.566;13.346;2023-04-16T10:15:18;2.22;;;2.13;;
34775;SDS011;20989;52.566;13.346;2023-04-16T10:18:19;2.45;;;2.25;;
34775;SDS011;20989;52.566;13.346;2023-04-16T10:21:20;2.10;;;2.00;;
34775;SDS011;20989;52.566;13.346;2023-04-16T10:24:21;1.98;;;1.88;;
34775;SDS011;20989;52.566;13.346;2023-04-16T10:27:22;1.98;;;1.88;;
34775;SDS011;20989;52.566;13.346;2023-04-16T10:30:23;2.13;;;2.03;;
34775;SDS011;20989;52.566;13.346;2023-04-16T10:33:26;2.00;;;1.90;;
34775;SDS011;20989;52.566;13.346;2023-04-16T10:36:29;2.05;;;1.95;;
34775;SDS011;20989;52.566;13.346;2023-04-16T10:39:30;2.13;;;2.03;;
34775;SDS011;20989;52.566;13.346;2023-04-16T10:42:36;2.08;;;1.98;;
34775;SDS011;20989;52.566;13.346;2023-04-16T10:45:37;2.50;;;2.30;;
34775;SDS011;20989;52.566;13.346;2023-04-16T10:48:38;1.77;;;1.67;;
34775;SDS011;20989;52.566;13.346;2023-04-16T10:51:38;2.40;;;2.30;;
34775;SDS011;20989;52.566;13.346;2023-04-16T10:54:39;3.30;;;2.20;;
34775;SDS011;20989;52.566;13.346;2023-04-16T10:57:40;2.58;;;2.38;;
34775;SDS011;20989;52.566;13.346;2023-04-16T11:00:50;7.55;;;2.40;;
34775;SDS011;20989;52.566;13.346;2023-04-16T11:03:51;5.22;;;2.45;;
34775;SDS011;20989;52.566;13.346;2023-04-16T11:10:05;2.25;;;2.13;;
34775;SDS011;20989;52.566;13.346;2023-04-16T11:13:06;2.72;;;2.55;;
34775;SDS011;20989;52.566;13.346;2023-04-16T11:16:08;2.38;;;2.17;;
34775;SDS011;20989;52.566;13.346;2023-04-16T11:19:14;2.00;;;1.90;;
34775;SDS011;20989;52.566;13.346;2023-04-16T11:22:16;2.40;;;2.20;;
34775;SDS011;20989;52.566;13.346;2023-04-16T11:25:27;2.05;;;1.83;;
34775;SDS011;20989;52.566;13.346;2023-04-16T11:28:32;2.35;;;2.10;;
34775;SDS011;20989;52.566;13.346;2023-04-16T11:31:33;1.90;;;1.80;;
34775;SDS011;20989;52.566;13.346;2023-04-16T11:34:41;2.22;;;2.13;;
34775;SDS011;20989;52.566;13.346;2023-04-16T11:37:44;2.28;;;2.08;;
34775;SDS011;20989;52.566;13.346;2023-04-16T11:40:48;2.15;;;2.05;;
34775;SDS011;20989;52.566;13.346;2023-04-16T11:43:50;2.10;;;2.00;;
34775;SDS011;20989;52.566;13.346;2023-04-16T11:46:51;6.10;;;1.98;;
34775;SDS011;20989;52.566;13.346;2023-04-16T11:49:52;2.92;;;1.70;;
34775;SDS011;20989;52.566;13.346;2023-04-16T11:52:54;2.03;;;1.92;;
34775;SDS011;20989;52.566;13.346;2023-04-16T11:55:56;1.77;;;1.67;;
34775;SDS011;20989;52.566;13.346;2023-04-16T11:59:13;2.00;;;1.90;;
34775;SDS011;20989;52.566;13.346;2023-04-16T12:02:15;6.32;;;2.15;;
34775;SDS011;20989;52.566;13.346;2023-04-16T12:08:37;2.55;;;1.90;;
34775;SDS011;20989;52.566;13.346;2023-04-16T12:11:38;1.95;;;1.85;;
34775;SDS011;20989;52.566;13.346;2023-04-16T12:14:48;2.88;;;2.42;;
34775;SDS011;20989;52.566;13.346;2023-04-16T12:17:49;2.33;;;2.20;;
34775;SDS011;20989;52.566;13.346;2023-04-16T12:20:54;4.20;;;1.60;;
34775;SDS011;20989;52.566;13.346;2023-04-16T12:23:55;1.67;;;1.58;;
34775;SDS011;20989;52.566;13.346;2023-04-16T12:26:55;1.85;;;1.75;;
34775;SDS011;20989;52.566;13.346;2023-04-16T12:30:04;1.77;;;1.65;;
34775;SDS011;20989;52.566;13.346;2023-04-16T12:33:13;3.22;;;1.50;;
34775;SDS011;20989;52.566;13.346;2023-04-16T12:36:18;4.40;;;2.42;;
34775;SDS011;20989;52.566;13.346;2023-04-16T12:39:19;3.65;;;2.03;;
34775;SDS011;20989;52.566;13.346;2023-04-16T12:42:19;3.72;;;2.05;;
34775;SDS011;20989;52.566;13.346;2023-04-16T12:45:20;2.17;;;1.98;;
34775;SDS011;20989;52.566;13.346;2023-04-16T12:48:21;3.63;;;1.60;;
34775;SDS011;20989;52.566;13.346;2023-04-16T12:51:22;2.05;;;1.85;;
34775;SDS011;20989;52.566;13.346;2023-04-16T12:54:22;6.05;;;1.85;;
34775;SDS011;20989;52.566;13.346;2023-04-16T12:57:27;4.05;;;2.20;;
34775;SDS011;20989;52.566;13.346;2023-04-16T13:00:28;3.78;;;1.75;;
34775;SDS011;20989;52.566;13.346;2023-04-16T13:03:29;1.90;;;1.63;;
34775;SDS011;20989;52.566;13.346;2023-04-16T13:06:29;2.78;;;1.70;;
34775;SDS011;20989;52.566;13.346;2023-04-16T13:09:33;1.67;;;1.58;;
34775;SDS011;20989;52.566;13.346;2023-04-16T13:12:34;2.40;;;1.90;;
34775;SDS011;20989;52.566;13.346;2023-04-16T13:15:34;1.52;;;1.42;;
34775;SDS011;20989;52.566;13.346;2023-04-16T13:18:35;2.00;;;1.90;;
34775;SDS011;20989;52.566;13.346;2023-04-16T13:21:36;1.58;;;1.48;;
34775;SDS011;20989;52.566;13.346;2023-04-16T13:24:37;1.38;;;1.35;;
34775;SDS011;20989;52.566;13.346;2023-04-16T13:27:38;1.80;;;1.70;;
34775;SDS011;20989;52.566;13.346;2023-04-16T13:30:38;4.25;;;1.65;;
34775;SDS011;20989;52.566;13.346;2023-04-16T13:33:39;1.75;;;1.63;;
34775;SDS011;20989;52.566;13.346;2023-04-16T13:36:40;3.80;;;1.58;;
34775;SDS011;20989;52.566;13.346;2023-04-16T13:39:41;1.67;;;1.35;;
34775;SDS011;20989;52.566;13.346;2023-04-16T13:42:41;1.65;;;1.55;;
34775;SDS011;20989;52.566;13.346;2023-04-16T13:45:42;2.47;;;1.48;;
34775;SDS011;20989;52.566;13.346;2023-04-16T13:48:43;4.88;;;1.67;;
34775;SDS011;20989;52.566;13.346;2023-04-16T13:51:45;4.88;;;1.35;;
34775;SDS011;20989;52.566;13.346;2023-04-16T13:54:45;5.47;;;1.65;;
34775;SDS011;20989;52.566;13.346;2023-04-16T13:57:46;1.70;;;1.60;;
34775;SDS011;20989;52.566;13.346;2023-04-16T14:00:48;4.32;;;1.77;;
34775;SDS011;20989;52.566;13.346;2023-04-16T14:03:49;1.60;;;1.50;;
34775;SDS011;20989;52.566;13.346;2023-04-16T14:06:49;1.67;;;1.50;;
34775;SDS011;20989;52.566;13.346;2023-04-16T14:09:50;1.63;;;1.50;;
34775;SDS011;20989;52.566;13.346;2023-04-16T14:12:51;1.65;;;1.55;;
34775;SDS011;20989;52.566;13.346;2023-04-16T14:15:54;1.70;;;1.60;;
34775;SDS011;20989;52.566;13.346;2023-04-16T14:18:56;1.55;;;1.45;;
34775;SDS011;20989;52.566;13.346;2023-04-16T14:21:56;1.60;;;1.50;;
34775;SDS011;20989;52.566;13.346;2023-04-16T14:24:57;2.83;;;2.13;;
34775;SDS011;20989;52.566;13.346;2023-04-16T14:27:58;4.90;;;2.58;;
34775;SDS011;20989;52.566;13.346;2023-04-16T14:31:00;2.83;;;2.00;;
34775;SDS011;20989;52.566;13.346;2023-04-16T14:34:00;2.30;;;2.10;;
34775;SDS011;20989;52.566;13.346;2023-04-16T14:37:01;4.00;;;2.60;;
34775;SDS011;20989;52.566;13.346;2023-04-16T14:40:03;2.28;;;1.95;;
34775;SDS011;20989;52.566;13.346;2023-04-16T14:43:07;4.68;;;1.98;;
34775;SDS011;20989;52.566;13.346;2023-04-16T14:46:07;2.60;;;1.88;;
34775;SDS011;20989;52.566;13.346;2023-04-16T14:49:08;2.60;;;1.80;;
34775;SDS011;20989;52.566;13.346;2023-04-16T14:52:09;2.45;;;1.58;;
34775;SDS011;20989;52.566;13.346;2023-04-16T14:55:10;3.13;;;2.63;;
34775;SDS011;20989;52.566;13.346;2023-04-16T14:58:11;1.98;;;1.88;;
34775;SDS011;20989;52.566;13.346;2023-04-16T15:01:11;2.05;;;1.90;;
34775;SDS011;20989;52.566;13.346;2023-04-16T15:04:13;1.92;;;1.77;;
34775;SDS011;20989;52.566;13.346;2023-04-16T15:07:14;3.22;;;2.20;;
34775;SDS011;20989;52.566;13.346;2023-04-16T15:10:15;1.63;;;1.52;;
34775;SDS011;20989;52.566;13.346;2023-04-16T15:13:16;2.47;;;1.83;;
34775;SDS011;20989;52.566;13.346;2023-04-16T15:16:16;7.00;;;2.10;;
34775;SDS011;20989;52.566;13.346;2023-04-16T15:19:17;2.25;;;2.05;;
34775;SDS011;20989;52.566;13.346;2023-04-16T15:22:18;16.27;;;1.85;;
34775;SDS011;20989;52.566;13.346;2023-04-16T15:25:18;7.20;;;1.75;;
34775;SDS011;20989;52.566;13.346;2023-04-16T15:28:19;7.90;;;1.88;;
34775;SDS011;20989;52.566;13.346;2023-04-16T15:31:20;6.65;;;2.15;;
34775;SDS011;20989;52.566;13.346;2023-04-16T15:34:20;8.35;;;2.15;;
34775;SDS011;20989;52.566;13.346;2023-04-16T15:37:21;7.30;;;2.13;;
34775;SDS011;20989;52.566;13.346;2023-04-16T15:40:25;6.68;;;2.08;;
34775;SDS011;20989;52.566;13.346;2023-04-16T15:43:26;15.30;;;3.33;;
34775;SDS011;20989;52.566;13.346;2023-04-16T15:46:30;7.95;;;2.28;;
34775;SDS011;20989;52.566;13.346;2023-04-16T15:49:30;13.02;;;2.20;;
34775;SDS011;20989;52.566;13.346;2023-04-16T15:52:31;34.42;;;3.85;;
34775;SDS011;20989;52.566;13.346;2023-04-16T15:55:31;36.67;;;4.80;;
34775;SDS011;20989;52.566;13.346;2023-04-16T15:58:33;29.23;;;4.13;;
34775;SDS011;20989;52.566;13.346;2023-04-16T16:01:35;23.20;;;3.45;;
34775;SDS011;20989;52.566;13.346;2023-04-16T16:04:35;28.55;;;3.60;;
34775;SDS011;20989;52.566;13.346;2023-04-16T16:07:36;35.10;;;4.53;;
34775;SDS011;20989;52.566;13.346;2023-04-16T16:10:37;60.47;;;5.82;;
34775;SDS011;20989;52.566;13.346;2023-04-16T16:13:38;47.92;;;4.63;;
34775;SDS011;20989;52.566;13.346;2023-04-16T16:16:38;26.65;;;3.97;;
34775;SDS011;20989;52.566;13.346;2023-04-16T16:19:39;34.30;;;4.57;;
34775;SDS011;20989;52.566;13.346;2023-04-16T16:22:40;49.15;;;4.65;;
34775;SDS011;20989;52.566;13.346;2023-04-16T16:25:44;64.78;;;5.47;;
34775;SDS011;20989;52.566;13.346;2023-04-16T16:28:44;40.10;;;5.18;;
34775;SDS011;20989;52.566;13.346;2023-04-16T16:31:45;42.80;;;4.93;;
34775;SDS011;20989;52.566;13.346;2023-04-16T16:34:45;36.88;;;4.88;;
34775;SDS011;20989;52.566;13.346;2023-04-16T16:37:46;41.75;;;4.30;;
34775;SDS011;20989;52.566;13.346;2023-04-16T16:40:47;44.22;;;4.50;;
34775;SDS011;20989;52.566;13.346;2023-04-16T16:43:47;22.95;;;4.43;;
34775;SDS011;20989;52.566;13.346;2023-04-16T16:46:49;45.50;;;4.63;;
34775;SDS011;20989;52.566;13.346;2023-04-16T16:49:50;57.72;;;6.65;;
34775;SDS011;20989;52.566;13.346;2023-04-16T16:52:53;34.95;;;5.00;;
34775;SDS011;20989;52.566;13.346;2023-04-16T16:55:54;52.78;;;5.32;;
34775;SDS011;20989;52.566;13.346;2023-04-16T16:58:54;30.25;;;4.53;;
34775;SDS011;20989;52.566;13.346;2023-04-16T17:01:55;50.97;;;4.88;;
34775;SDS011;20989;52.566;13.346;2023-04-16T17:04:56;27.88;;;4.68;;
34775;SDS011;20989;52.566;13.346;2023-04-16T17:07:57;48.78;;;4.72;;
34775;SDS011;20989;52.566;13.346;2023-04-16T17:11:01;34.55;;;4.78;;
34775;SDS011;20989;52.566;13.346;2023-04-16T17:14:02;28.10;;;3.80;;
34775;SDS011;20989;52.566;13.346;2023-04-16T17:17:03;17.58;;;3.08;;
34775;SDS011;20989;52.566;13.346;2023-04-16T17:20:03;25.23;;;3.67;;
34775;SDS011;20989;52.566;13.346;2023-04-16T17:23:08;17.58;;;4.70;;
34775;SDS011;20989;52.566;13.346;2023-04-16T17:26:09;23.15;;;3.45;;
34775;SDS011;20989;52.566;13.346;2023-04-16T17:29:09;16.92;;;3.20;;
34775;SDS011;20989;52.566;13.346;2023-04-16T17:32:10;15.77;;;2.63;;
34775;SDS011;20989;52.566;13.346;2023-04-16T17:35:11;25.30;;;3.33;;
34775;SDS011;20989;52.566;13.346;2023-04-16T17:38:12;11.25;;;3.05;;
34775;SDS011;20989;52.566;13.346;2023-04-16T17:41:13;44.45;;;4.95;;
34775;SDS011;20989;52.566;13.346;2023-04-16T17:44:13;47.22;;;5.78;;
34775;SDS011;20989;52.566;13.346;2023-04-16T17:47:14;28.45;;;4.20;;
34775;SDS011;20989;52.566;13.346;2023-04-16T17:50:15;40.72;;;4.18;;
34775;SDS011;20989;52.566;13.346;2023-04-16T17:53:15;41.28;;;4.85;;
34775;SDS011;20989;52.566;13.346;2023-04-16T17:56:16;48.30;;;5.28;;
34775;SDS011;20989;52.566;13.346;2023-04-16T17:59:16;32.20;;;4.35;;
34775;SDS011;20989;52.566;13.346;2023-04-16T18:02:17;35.30;;;3.78;;
34775;SDS011;20989;52.566;13.346;2023-04-16T18:05:18;50.33;;;4.88;;